createdAt,value
2023-01-13T00:00:04.796Z,36.38
2023-01-13T00:02:31.335Z,32.70
2023-01-13T00:04:57.849Z,34.20
2023-01-13T00:07:24.328Z,34.03
2023-01-13T00:09:50.867Z,32.22
2023-01-13T00:12:17.361Z,34.20
2023-01-13T00:14:43.791Z,33.75
2023-01-13T00:17:10.220Z,34.13
2023-01-13T00:19:36.699Z,32.33
2023-01-13T00:22:03.222Z,33.83
2023-01-13T00:24:29.699Z,35.15
2023-01-13T00:26:56.162Z,35.65
2023-01-13T00:29:22.572Z,34.17
2023-01-13T00:31:49.434Z,35.50
2023-01-13T00:34:15.885Z,34.55
2023-01-13T00:36:42.389Z,34.08
2023-01-13T00:39:08.887Z,33.88
2023-01-13T00:41:55.249Z,34.35
2023-01-13T00:44:21.654Z,32.72
2023-01-13T00:46:48.118Z,35.13
2023-01-13T00:49:14.584Z,34.45
2023-01-13T00:51:40.985Z,36.30
2023-01-13T00:54:07.881Z,34.15
2023-01-13T00:56:40.115Z,34.80
2023-01-13T00:59:07.606Z,36.53
2023-01-13T01:01:34.056Z,36.35
2023-01-13T01:04:00.630Z,34.65
2023-01-13T01:06:27.429Z,36.25
2023-01-13T01:08:54.682Z,33.88
2023-01-13T01:11:25.254Z,35.50
2023-01-13T01:13:52.628Z,36.50
2023-01-13T01:16:20.362Z,36.70
2023-01-13T01:18:47.885Z,38.20
2023-01-13T01:21:14.616Z,36.95
2023-01-13T01:23:41.876Z,38.78
2023-01-13T01:26:10.645Z,35.47
2023-01-13T01:28:37.078Z,33.55
2023-01-13T01:31:07.340Z,34.53
2023-01-13T01:33:34.143Z,35.42
2023-01-13T01:36:01.575Z,35.42
2023-01-13T01:38:28.037Z,32.35
2023-01-13T01:40:54.477Z,34.30
2023-01-13T01:43:40.117Z,31.58
2023-01-13T01:46:06.772Z,36.35
2023-01-13T01:48:36.611Z,35.63
2023-01-13T01:51:03.157Z,31.17
2023-01-13T01:53:30.616Z,34.45
2023-01-13T01:55:57.783Z,32.83
2023-01-13T01:58:39.660Z,35.03
2023-01-13T02:01:06.154Z,34.90
2023-01-13T02:03:33.293Z,33.97
2023-01-13T02:05:59.823Z,33.70
2023-01-13T02:08:26.307Z,32.95
2023-01-13T02:10:53.932Z,35.00
2023-01-13T02:13:21.292Z,35.85
2023-01-13T02:15:52.806Z,35.97
2023-01-13T02:18:25.431Z,39.63
2023-01-13T02:21:00.837Z,36.35
2023-01-13T02:24:01.254Z,33.42
2023-01-13T02:26:27.700Z,32.33
2023-01-13T02:29:16.232Z,34.20
2023-01-13T02:31:43.860Z,33.85
2023-01-13T02:34:10.306Z,35.30
2023-01-13T02:36:46.444Z,33.75
2023-01-13T02:39:31.492Z,31.60
2023-01-13T02:42:22.436Z,30.17
2023-01-13T02:44:51.010Z,32.67
2023-01-13T02:47:21.375Z,32.15
2023-01-13T02:49:50.018Z,35.25
2023-01-13T02:52:28.400Z,32.40
2023-01-13T02:54:56.464Z,33.58
2023-01-13T02:57:23.915Z,30.02
2023-01-13T02:59:51.989Z,30.85
2023-01-13T03:02:20.139Z,35.05
2023-01-13T03:04:49.632Z,35.35
2023-01-13T03:07:33.450Z,35.40
2023-01-13T03:10:09.234Z,37.50
2023-01-13T03:12:41.465Z,37.22
2023-01-13T03:15:11.008Z,38.45
2023-01-13T03:17:59.090Z,37.25
2023-01-13T03:20:27.352Z,36.88
2023-01-13T03:22:53.764Z,36.08
2023-01-13T03:25:20.220Z,35.35
2023-01-13T03:27:50.833Z,40.67
2023-01-13T03:30:35.709Z,38.17
2023-01-13T03:33:07.774Z,36.95
2023-01-13T03:35:36.819Z,35.67
2023-01-13T03:38:05.700Z,37.72
2023-01-13T03:40:34.549Z,35.72
2023-01-13T03:43:22.727Z,33.70
2023-01-13T03:45:52.752Z,30.40
2023-01-13T03:48:20.314Z,32.80
2023-01-13T03:50:51.779Z,36.25
2023-01-13T03:53:24.175Z,33.08
2023-01-13T03:55:53.527Z,33.30
2023-01-13T03:58:22.570Z,32.97
2023-01-13T04:00:52.109Z,34.80
2023-01-13T04:03:23.454Z,35.45
2023-01-13T04:05:52.530Z,37.40
2023-01-13T04:08:21.229Z,40.35
2023-01-13T04:10:53.377Z,39.13
2023-01-13T04:13:22.093Z,38.83
2023-01-13T04:15:49.225Z,38.83
2023-01-13T04:18:23.961Z,40.22
2023-01-13T04:20:51.246Z,37.33
2023-01-13T04:23:18.022Z,38.05
2023-01-13T04:25:44.998Z,39.40
2023-01-13T04:28:11.562Z,36.55
2023-01-13T04:30:38.427Z,40.55
2023-01-13T04:33:05.416Z,40.05
2023-01-13T04:35:32.594Z,40.10
2023-01-13T04:38:06.350Z,42.63
2023-01-13T04:40:32.857Z,41.08
2023-01-13T04:42:59.394Z,43.97
2023-01-13T04:45:26.058Z,38.80
2023-01-13T04:47:52.669Z,39.42
2023-01-13T04:50:22.818Z,41.72
2023-01-13T04:52:50.184Z,39.05
2023-01-13T04:55:16.972Z,38.95
2023-01-13T04:57:43.813Z,38.92
2023-01-13T05:00:11.667Z,39.80
2023-01-13T05:02:38.170Z,38.25
2023-01-13T05:05:04.877Z,36.53
2023-01-13T05:07:31.400Z,37.88
2023-01-13T05:09:57.897Z,36.05
2023-01-13T05:12:59.562Z,34.10
2023-01-13T05:15:44.459Z,26.67
2023-01-13T05:18:11.062Z,35.03
2023-01-13T05:20:37.517Z,33.22
2023-01-13T05:23:22.309Z,32.20
2023-01-13T05:25:49.137Z,32.25
2023-01-13T05:28:16.063Z,33.47
2023-01-13T05:30:46.015Z,31.38
2023-01-13T05:33:13.419Z,31.63
2023-01-13T05:35:40.660Z,30.05
2023-01-13T05:38:07.320Z,30.75
2023-01-13T05:40:52.663Z,30.70
2023-01-13T05:43:20.966Z,29.63
2023-01-13T05:45:50.646Z,28.98
2023-01-13T05:48:18.090Z,27.98
2023-01-13T05:50:44.929Z,28.17
2023-01-13T05:53:11.781Z,27.33
2023-01-13T05:55:39.411Z,28.65
2023-01-13T05:58:05.998Z,28.98
2023-01-13T06:00:33.536Z,25.05
2023-01-13T06:03:00.067Z,26.23
2023-01-13T06:05:26.631Z,26.98
2023-01-13T06:07:56.194Z,24.52
2023-01-13T06:10:22.658Z,28.63
2023-01-13T06:12:49.112Z,27.17
2023-01-13T06:15:15.612Z,24.63
2023-01-13T06:17:42.087Z,24.33
2023-01-13T06:20:09.184Z,25.70
2023-01-13T06:22:39.771Z,24.73
2023-01-13T06:25:11.727Z,24.42
2023-01-13T06:30:04.711Z,25.83
2023-01-13T06:32:38.928Z,26.25
2023-01-13T06:35:08.277Z,26.30
2023-01-13T06:37:35.874Z,29.23
2023-01-13T06:40:03.894Z,26.45
2023-01-13T06:42:50.896Z,25.67
2023-01-13T06:45:17.956Z,24.65
2023-01-13T06:47:44.402Z,22.83
2023-01-13T06:50:11.009Z,25.25
2023-01-13T06:52:37.456Z,24.85
2023-01-13T06:55:04.204Z,24.88
2023-01-13T06:57:30.635Z,23.30
2023-01-13T06:59:57.123Z,24.45
2023-01-13T07:02:23.752Z,25.17
2023-01-13T07:04:50.252Z,25.70
2023-01-13T07:07:16.693Z,27.42
2023-01-13T07:09:43.144Z,30.95
2023-01-13T07:12:09.683Z,34.20
2023-01-13T07:14:54.504Z,30.25
2023-01-13T07:17:25.385Z,29.73
2023-01-13T07:19:52.308Z,23.67
2023-01-13T07:22:18.797Z,21.88
2023-01-13T07:24:45.277Z,19.20
2023-01-13T07:27:11.755Z,18.98
2023-01-13T07:29:38.128Z,19.80
2023-01-13T07:32:05.666Z,18.20
2023-01-13T07:34:32.093Z,16.10
2023-01-13T07:36:58.538Z,14.48
2023-01-13T07:39:24.999Z,17.63
2023-01-13T07:42:09.629Z,15.75
2023-01-13T07:44:36.063Z,17.30
2023-01-13T07:47:02.504Z,21.65
2023-01-13T07:49:28.998Z,19.80
2023-01-13T07:51:55.586Z,19.33
2023-01-13T07:54:35.084Z,22.75
2023-01-13T07:57:06.417Z,21.27
2023-01-13T07:59:32.891Z,22.08
2023-01-13T08:01:59.703Z,19.58
2023-01-13T08:04:26.331Z,18.67
2023-01-13T08:06:52.769Z,13.60
2023-01-13T08:09:19.203Z,10.25
2023-01-13T08:12:05.576Z,10.18
2023-01-13T08:14:32.121Z,10.32
2023-01-13T08:16:58.604Z,13.00
2023-01-13T08:19:25.109Z,14.10
2023-01-13T08:21:51.549Z,13.88
2023-01-13T08:24:18.031Z,14.55
2023-01-13T08:26:44.473Z,12.82
2023-01-13T08:29:13.683Z,12.23
2023-01-13T08:31:41.164Z,11.13
2023-01-13T08:34:07.682Z,11.15
2023-01-13T08:36:34.119Z,11.30
2023-01-13T08:39:00.581Z,9.77
2023-01-13T08:41:45.696Z,11.57
2023-01-13T08:44:12.224Z,11.85
2023-01-13T08:46:38.734Z,11.75
2023-01-13T08:49:05.418Z,12.23
2023-01-13T08:51:31.973Z,12.32
2023-01-13T08:53:58.487Z,12.20
2023-01-13T08:56:24.902Z,12.63
2023-01-13T08:58:52.476Z,14.35
2023-01-13T09:01:21.727Z,14.68
2023-01-13T09:03:48.213Z,15.43
2023-01-13T09:06:14.765Z,15.43
2023-01-13T09:08:41.292Z,14.60
2023-01-13T09:11:28.650Z,14.27
2023-01-13T09:13:55.102Z,14.63
2023-01-13T09:16:21.536Z,13.55
2023-01-13T09:18:47.987Z,13.82
2023-01-13T09:21:14.973Z,13.07
2023-01-13T14:40:35.848Z,34.80
2023-01-13T14:43:11.919Z,31.48
2023-01-13T14:45:54.584Z,28.83
2023-01-13T14:48:21.654Z,29.05
2023-01-13T14:50:48.308Z,28.58
2023-01-13T14:53:29.318Z,30.83
2023-01-13T14:55:55.846Z,22.80
2023-01-13T14:58:22.317Z,33.05
2023-01-13T15:00:49.657Z,31.08
2023-01-13T15:03:16.967Z,33.40
2023-01-13T15:05:47.635Z,33.85
2023-01-13T15:08:14.167Z,33.28
2023-01-13T15:10:48.539Z,34.25
2023-01-13T15:13:23.914Z,33.83
2023-01-13T15:15:54.642Z,34.50
2023-01-13T15:18:21.358Z,37.88
2023-01-13T15:20:47.840Z,43.53
2023-01-13T15:23:14.235Z,39.95
2023-01-13T15:25:42.234Z,37.10
2023-01-13T15:28:28.931Z,40.92
2023-01-13T15:30:55.963Z,40.17
2023-01-13T15:33:22.946Z,41.35
2023-01-13T15:35:50.247Z,45.13
2023-01-13T15:38:18.529Z,42.22
2023-01-13T15:40:45.489Z,42.22
2023-01-13T15:43:33.893Z,43.30
2023-01-13T15:46:19.244Z,49.22
2023-01-13T15:48:45.697Z,49.80
2023-01-13T15:51:17.086Z,51.70
2023-01-13T15:53:44.063Z,55.10
2023-01-13T15:56:18.395Z,52.75
2023-01-13T15:58:44.879Z,55.85
2023-01-13T16:01:12.523Z,56.95
2023-01-13T16:03:39.060Z,55.17
2023-01-13T16:06:16.163Z,56.08
2023-01-13T16:08:42.656Z,56.65
2023-01-13T16:11:09.657Z,57.45
2023-01-13T16:13:36.086Z,60.10
2023-01-13T16:16:02.878Z,62.80
2023-01-13T16:18:29.480Z,75.35
2023-01-13T16:20:55.908Z,110.05
2023-01-13T16:23:22.864Z,195.48
2023-01-13T16:25:50.232Z,88.78
2023-01-13T16:28:24.376Z,83.43
2023-01-13T16:30:51.223Z,99.53
2023-01-13T16:33:17.692Z,59.30
2023-01-13T16:36:10.560Z,54.50
2023-01-13T16:38:30.701Z,55.85
2023-01-13T16:40:57.228Z,186.15
2023-01-13T16:43:23.664Z,416.15
2023-01-13T16:45:50.124Z,429.13
2023-01-13T16:48:20.299Z,455.13
2023-01-13T16:50:46.924Z,307.05
2023-01-13T16:53:13.391Z,115.25
2023-01-13T16:55:40.531Z,65.10
2023-01-13T16:58:07.616Z,54.17
2023-01-13T17:00:34.112Z,51.97
2023-01-13T17:03:02.055Z,55.65
2023-01-13T17:05:29.051Z,55.40
2023-01-13T17:07:55.524Z,56.20
2023-01-13T17:10:23.034Z,60.40
2023-01-13T17:12:49.654Z,57.03
2023-01-13T17:15:17.210Z,58.72
2023-01-13T17:17:46.897Z,538.55
2023-01-13T17:20:14.314Z,582.28
2023-01-13T17:22:42.324Z,385.73
2023-01-13T17:25:10.380Z,525.67
2023-01-13T17:27:36.781Z,318.30
2023-01-13T17:30:03.452Z,345.90
2023-01-13T17:32:29.982Z,349.50
2023-01-13T17:34:56.644Z,248.70
2023-01-13T17:37:23.043Z,315.58
2023-01-13T17:39:51.166Z,276.15
2023-01-13T17:42:17.712Z,289.20
2023-01-13T17:44:44.228Z,177.32
2023-01-13T17:47:10.672Z,143.23
2023-01-13T17:49:37.288Z,71.85
2023-01-13T17:52:04.185Z,59.58
2023-01-13T17:54:30.638Z,48.88
2023-01-13T17:56:57.232Z,49.28
2023-01-13T17:59:26.672Z,45.55
2023-01-13T18:01:53.261Z,42.30
2023-01-13T18:04:23.538Z,49.03
2023-01-13T18:06:50.287Z,42.92
2023-01-13T18:09:17.160Z,41.28
2023-01-13T18:11:44.477Z,43.13
2023-01-13T18:14:11.908Z,44.47
2023-01-13T18:16:38.881Z,164.13
2023-01-13T18:19:24.023Z,269.70
2023-01-13T18:22:08.822Z,216.05
2023-01-13T18:24:53.930Z,388.38
2023-01-13T18:27:26.596Z,347.73
2023-01-13T18:29:54.260Z,268.40
2023-01-13T18:32:21.507Z,143.57
2023-01-13T18:34:49.049Z,154.32
2023-01-13T18:37:16.981Z,77.65
2023-01-13T18:39:43.472Z,183.80
2023-01-13T18:42:28.614Z,81.68
2023-01-13T18:44:56.991Z,80.15
2023-01-13T18:47:24.768Z,117.18
2023-01-13T18:49:51.266Z,58.40
2023-01-13T18:52:17.785Z,53.72
2023-01-13T18:54:44.222Z,48.10
2023-01-13T18:57:10.681Z,38.70
2023-01-13T18:59:37.103Z,38.33
2023-01-13T19:02:03.693Z,32.97
2023-01-13T19:04:30.293Z,34.13
2023-01-13T19:07:01.032Z,36.67
2023-01-13T19:09:29.288Z,35.95
2023-01-13T19:11:56.832Z,34.15
2023-01-13T19:14:37.521Z,36.72
2023-01-13T19:17:09.725Z,36.85
2023-01-13T19:19:39.662Z,40.55
2023-01-13T19:22:06.611Z,38.65
2023-01-13T19:24:33.311Z,37.40
2023-01-13T19:26:59.832Z,37.00
2023-01-13T19:29:26.435Z,35.50
2023-01-13T19:31:52.881Z,34.38
2023-01-13T19:34:19.335Z,32.85
2023-01-13T19:36:45.783Z,33.38
2023-01-13T19:39:12.291Z,32.00
2023-01-13T19:41:57.183Z,31.20
2023-01-13T19:44:42.003Z,30.75
2023-01-13T19:47:08.492Z,31.73
2023-01-13T19:49:34.918Z,28.02
2023-01-13T19:52:01.414Z,31.73
2023-01-13T19:54:27.843Z,30.52
2023-01-13T19:56:54.355Z,30.15
2023-01-13T19:59:22.295Z,26.65
2023-01-13T20:01:48.998Z,26.88
2023-01-13T20:04:18.420Z,27.00
2023-01-13T20:06:44.966Z,27.05
2023-01-13T20:09:12.158Z,26.20
2023-01-13T20:11:38.682Z,27.77
2023-01-13T20:14:05.185Z,26.48
2023-01-13T20:16:33.810Z,28.25
2023-01-13T20:19:00.360Z,26.83
2023-01-13T20:21:27.079Z,27.70
2023-01-13T20:23:53.586Z,27.35
2023-01-13T20:26:20.600Z,26.90
2023-01-13T20:28:47.411Z,29.50
2023-01-13T20:31:14.613Z,28.55
2023-01-13T20:33:41.222Z,27.08
2023-01-13T20:36:08.232Z,28.98
2023-01-13T20:38:37.913Z,28.33
2023-01-13T20:41:24.023Z,26.35
2023-01-13T20:43:50.539Z,26.70
2023-01-13T20:46:17.135Z,26.65
2023-01-13T20:48:43.581Z,25.85
2023-01-13T20:51:10.036Z,26.80
2023-01-13T20:53:36.527Z,27.52
2023-01-13T20:56:07.125Z,29.15
2023-01-13T20:58:33.635Z,28.25
2023-01-13T21:01:00.243Z,26.38
2023-01-13T21:03:26.809Z,26.08
2023-01-13T21:05:53.245Z,24.65
2023-01-13T21:08:19.744Z,24.40
2023-01-13T21:10:46.209Z,23.65
2023-01-13T21:13:30.987Z,24.02
2023-01-13T21:15:57.463Z,22.23
2023-01-13T21:18:42.521Z,22.63
2023-01-13T21:21:11.741Z,22.27
2023-01-13T21:23:39.347Z,23.75
2023-01-13T21:26:05.827Z,24.60
2023-01-13T21:28:34.432Z,26.33
2023-01-13T21:31:04.664Z,24.52
2023-01-13T21:33:31.173Z,25.02
2023-01-13T21:35:57.668Z,24.05
2023-01-13T21:38:25.862Z,23.08
2023-01-13T21:40:56.010Z,23.95
2023-01-13T21:43:40.739Z,22.92
2023-01-13T21:46:35.196Z,23.77
2023-01-13T21:49:01.693Z,22.30
2023-01-13T21:51:28.496Z,23.65
2023-01-13T21:53:55.168Z,24.75
2023-01-13T21:56:21.978Z,25.13
2023-01-13T21:58:48.740Z,25.25
2023-01-13T22:01:15.447Z,24.35
2023-01-13T22:04:00.426Z,25.27
2023-01-13T22:06:26.947Z,23.92
2023-01-13T22:08:55.567Z,23.35
2023-01-13T22:11:22.098Z,23.65
2023-01-13T22:14:07.217Z,24.15
2023-01-13T22:16:41.763Z,23.23
2023-01-13T22:19:09.385Z,22.55
2023-01-13T22:21:35.963Z,23.92
2023-01-13T22:24:02.751Z,24.33
2023-01-13T22:26:29.394Z,23.27
2023-01-13T22:28:55.888Z,23.05
2023-01-13T22:31:23.843Z,23.70
2023-01-13T22:33:54.255Z,22.45
2023-01-13T22:36:21.437Z,26.33
2023-01-13T22:38:48.031Z,24.83
2023-01-13T22:41:14.563Z,23.75
2023-01-13T22:43:41.108Z,23.52
2023-01-13T22:46:11.270Z,23.83
2023-01-13T22:48:38.358Z,22.55
2023-01-13T22:51:06.052Z,23.42
2023-01-13T22:53:32.559Z,23.10
2023-01-13T22:55:59.458Z,23.00
2023-01-13T22:58:26.385Z,21.13
2023-01-13T23:00:53.282Z,22.27
2023-01-13T23:03:19.792Z,20.77
2023-01-13T23:05:46.223Z,21.27
2023-01-13T23:08:12.885Z,21.17
2023-01-13T23:10:39.513Z,19.40
2023-01-13T23:13:06.040Z,20.20
2023-01-13T23:15:34.562Z,18.70
2023-01-13T23:18:02.742Z,17.77
2023-01-13T23:20:30.588Z,19.50
2023-01-13T23:23:00.388Z,18.13
2023-01-13T23:25:26.897Z,16.90
2023-01-13T23:27:53.344Z,18.75
2023-01-13T23:30:19.798Z,17.10
2023-01-13T23:32:46.334Z,17.80
2023-01-13T23:35:12.851Z,18.35
2023-01-13T23:37:39.303Z,18.02
2023-01-13T23:40:06.803Z,17.35
2023-01-13T23:42:33.313Z,17.88
2023-01-13T23:44:59.758Z,17.92
2023-01-13T23:47:26.221Z,17.52
2023-01-13T23:49:52.631Z,16.23
2023-01-13T23:52:19.270Z,15.98
2023-01-13T23:54:45.796Z,16.90
2023-01-13T23:57:12.231Z,17.63
2023-01-13T23:59:38.701Z,16.80
